createdAt,value
2023-01-18T00:02:47.007Z,11.16
2023-01-18T00:06:09.767Z,11.14
2023-01-18T00:09:24.896Z,11.20
2023-01-18T00:12:46.724Z,11.15
2023-01-18T00:16:14.793Z,10.85
2023-01-18T00:19:36.683Z,10.80
2023-01-18T00:22:51.805Z,10.57
2023-01-18T00:26:14.745Z,10.76
2023-01-18T00:29:29.777Z,10.69
2023-01-18T00:32:51.737Z,10.55
2023-01-18T00:36:14.696Z,10.59
2023-01-18T00:39:36.727Z,10.85
2023-01-18T00:43:10.287Z,10.79
2023-01-18T00:46:33.654Z,11.00
2023-01-18T00:49:55.660Z,10.56
2023-01-18T00:53:10.926Z,10.65
2023-01-18T00:56:33.685Z,10.45
2023-01-18T00:59:55.691Z,10.70
2023-01-18T01:03:10.833Z,10.60
2023-01-18T01:06:51.713Z,10.65
2023-01-18T01:10:16.649Z,10.41
2023-01-18T01:13:50.713Z,10.52
2023-01-18T01:17:30.695Z,10.64
2023-01-18T01:21:10.671Z,10.79
2023-01-18T01:24:44.296Z,10.90
2023-01-18T01:28:05.695Z,10.98
2023-01-18T01:31:21.678Z,10.98
2023-01-18T01:34:36.789Z,11.02
2023-01-18T01:37:58.660Z,10.74
2023-01-18T01:41:30.648Z,10.68
2023-01-18T01:44:53.696Z,10.69
2023-01-18T01:48:16.645Z,10.93
2023-01-18T01:51:33.014Z,10.96
2023-01-18T01:54:54.715Z,10.65
2023-01-18T01:58:13.181Z,10.79
2023-01-18T02:01:34.727Z,10.85
2023-01-18T02:05:00.635Z,10.86
2023-01-18T02:08:22.254Z,10.90
2023-01-18T02:11:43.638Z,10.96
2023-01-18T02:15:05.668Z,11.13
2023-01-18T02:18:27.650Z,11.12
2023-01-18T02:21:45.758Z,11.24
2023-01-18T02:25:07.620Z,11.25
2023-01-18T02:28:37.810Z,11.05
2023-01-18T02:32:17.598Z,11.35
2023-01-18T02:35:49.619Z,11.28
2023-01-18T02:39:29.613Z,11.19
2023-01-18T02:43:11.593Z,11.40
2023-01-18T02:46:37.601Z,11.52
2023-01-18T02:49:59.583Z,11.26
2023-01-18T02:53:21.626Z,11.40
2023-01-18T02:56:36.736Z,11.12
2023-01-18T03:00:01.635Z,11.41
2023-01-18T03:03:24.644Z,11.59
2023-01-18T03:06:42.028Z,11.41
2023-01-18T03:10:03.616Z,11.41
2023-01-18T03:13:25.790Z,11.50
2023-01-18T03:17:04.611Z,11.20
2023-01-18T03:20:32.620Z,11.46
2023-01-18T03:23:56.569Z,11.59
2023-01-18T03:27:38.611Z,11.56
2023-01-18T03:31:20.774Z,11.55
2023-01-18T03:34:45.611Z,11.59
2023-01-18T03:38:09.581Z,11.73
2023-01-18T03:41:33.610Z,11.65
2023-01-18T03:44:59.601Z,11.67
2023-01-18T03:48:15.114Z,11.49
2023-01-18T03:51:39.606Z,11.71
2023-01-18T03:55:03.673Z,11.71
2023-01-18T03:58:26.578Z,11.64
2023-01-18T04:01:50.710Z,11.47
2023-01-18T04:05:12.592Z,11.57
2023-01-18T04:08:27.978Z,11.55
2023-01-18T04:11:49.559Z,11.43
2023-01-18T04:15:11.583Z,11.64
2023-01-18T04:18:26.728Z,11.40
2023-01-18T04:21:48.581Z,11.68
2023-01-18T04:25:03.657Z,11.53
2023-01-18T04:28:35.542Z,11.51
2023-01-18T04:31:57.560Z,11.65
2023-01-18T04:35:19.558Z,11.55
2023-01-18T04:38:34.609Z,11.67
2023-01-18T04:41:57.365Z,11.82
2023-01-18T04:45:14.173Z,11.87
2023-01-18T04:48:35.542Z,11.63
2023-01-18T04:51:51.692Z,11.63
2023-01-18T04:55:13.517Z,11.84
2023-01-18T04:58:35.572Z,11.67
2023-01-18T05:01:57.567Z,11.68
2023-01-18T05:05:19.591Z,11.77
2023-01-18T05:08:35.094Z,11.34
2023-01-18T05:11:56.517Z,11.68
2023-01-18T05:15:18.529Z,11.51
2023-01-18T05:18:40.566Z,11.63
2023-01-18T05:22:02.508Z,11.54
2023-01-18T05:25:24.534Z,11.44
2023-01-18T05:28:46.562Z,11.60
2023-01-18T05:32:08.556Z,11.73
2023-01-18T05:35:23.790Z,11.68
2023-01-18T05:38:45.529Z,12.01
2023-01-18T05:42:07.529Z,11.68
2023-01-18T05:45:29.561Z,11.80
2023-01-18T05:48:51.552Z,11.67
2023-01-18T05:52:14.510Z,11.90
2023-01-18T05:55:36.568Z,11.66
2023-01-18T05:58:58.491Z,11.60
2023-01-18T06:02:20.547Z,11.48
2023-01-18T06:05:35.564Z,11.51
2023-01-18T06:08:57.507Z,11.59
2023-01-18T06:12:12.603Z,11.70
2023-01-18T06:15:34.511Z,11.61
2023-01-18T06:18:56.473Z,11.69
2023-01-18T06:22:18.505Z,11.48
2023-01-18T06:25:40.541Z,11.45
2023-01-18T06:29:02.510Z,11.56
2023-01-18T06:32:24.487Z,11.64
2023-01-18T06:35:46.518Z,11.75
2023-01-18T06:39:01.607Z,11.56
2023-01-18T06:42:23.564Z,11.71
2023-01-18T06:45:38.668Z,11.80
2023-01-18T06:49:00.537Z,11.82
2023-01-18T06:52:22.516Z,11.99
2023-01-18T06:55:37.747Z,11.87
2023-01-18T06:58:59.525Z,12.04
2023-01-18T07:02:16.600Z,12.25
2023-01-18T07:05:38.515Z,12.12
2023-01-18T07:09:00.445Z,12.04
2023-01-18T07:12:22.507Z,12.24
2023-01-18T07:15:37.670Z,12.23
2023-01-18T07:18:59.506Z,12.35
2023-01-18T07:22:21.485Z,12.55
2023-01-18T07:25:43.457Z,12.69
2023-01-18T07:28:58.754Z,12.64
2023-01-18T07:32:20.445Z,12.67
2023-01-18T07:35:42.509Z,12.80
2023-01-18T07:38:57.621Z,12.62
2023-01-18T07:42:19.427Z,12.58
2023-01-18T07:45:34.580Z,12.55
2023-01-18T07:48:56.471Z,12.63
2023-01-18T07:52:18.512Z,12.62
2023-01-18T07:55:40.487Z,12.65
2023-01-18T07:59:02.456Z,12.66
2023-01-18T08:02:17.762Z,12.88
2023-01-18T08:05:39.485Z,12.89
2023-01-18T08:08:55.455Z,13.02
2023-01-18T08:12:20.460Z,13.11
2023-01-18T08:15:42.481Z,13.09
2023-01-18T08:18:57.562Z,13.20
2023-01-18T08:22:19.444Z,13.23
2023-01-18T08:25:35.540Z,13.45
2023-01-18T08:28:57.405Z,13.74
2023-01-18T08:32:19.412Z,13.57
2023-01-18T08:35:40.797Z,13.64
2023-01-18T08:39:06.458Z,13.84
2023-01-18T08:42:21.638Z,13.77
2023-01-18T08:45:43.455Z,13.89
2023-01-18T08:49:07.456Z,14.07
2023-01-18T08:52:22.508Z,14.16
2023-01-18T08:55:44.432Z,13.87
2023-01-18T08:59:06.425Z,13.77
2023-01-18T09:02:21.863Z,13.63
2023-01-18T09:05:43.476Z,13.65
2023-01-18T09:08:59.495Z,13.85
2023-01-18T09:12:21.419Z,14.24
2023-01-18T09:15:37.240Z,14.30
2023-01-18T09:18:59.413Z,14.27
2023-01-18T09:22:21.397Z,14.32
2023-01-18T09:25:36.762Z,14.05
2023-01-18T09:28:59.429Z,13.77
2023-01-18T09:32:14.495Z,14.09
2023-01-18T09:35:36.398Z,14.33
2023-01-18T09:38:58.410Z,14.41
2023-01-18T09:42:28.436Z,14.64
2023-01-18T09:45:44.477Z,14.55
2023-01-18T09:49:07.422Z,14.58
2023-01-18T09:52:31.802Z,14.35
2023-01-18T09:56:12.392Z,14.17
2023-01-18T09:59:43.403Z,14.35
2023-01-18T10:03:01.529Z,14.25
2023-01-18T10:06:30.423Z,14.27
2023-01-18T10:09:51.036Z,14.23
2023-01-18T10:13:37.388Z,14.23
2023-01-18T10:16:56.560Z,14.08
2023-01-18T10:20:33.468Z,14.01
2023-01-18T10:24:16.942Z,14.01
2023-01-18T10:27:38.439Z,13.86
2023-01-18T10:31:03.906Z,13.96
2023-01-18T10:34:31.381Z,14.01
2023-01-18T10:37:46.798Z,13.76
2023-01-18T10:41:10.422Z,13.89
2023-01-18T10:44:32.321Z,14.04
2023-01-18T10:47:50.460Z,14.06
2023-01-18T10:51:16.173Z,14.14
2023-01-18T10:54:33.453Z,14.22
2023-01-18T10:58:01.508Z,14.28
2023-01-18T11:01:22.472Z,14.17
2023-01-18T11:04:44.359Z,14.32
2023-01-18T11:08:25.389Z,14.56
2023-01-18T11:11:58.886Z,14.74
2023-01-18T11:15:29.325Z,14.39
2023-01-18T11:18:55.648Z,14.60
2023-01-18T11:22:24.375Z,14.61
2023-01-18T11:25:52.324Z,14.68
2023-01-18T11:29:08.446Z,14.69
2023-01-18T11:32:31.276Z,14.85
2023-01-18T11:35:46.413Z,15.03
2023-01-18T11:39:32.387Z,15.43
2023-01-18T11:42:54.355Z,15.31
2023-01-18T11:46:20.854Z,15.05
2023-01-18T11:49:49.351Z,14.64
2023-01-18T11:53:14.303Z,14.63
2023-01-18T11:56:54.319Z,14.56
2023-01-18T12:00:16.428Z,14.63
2023-01-18T12:03:51.322Z,15.08
2023-01-18T12:07:28.305Z,14.42
2023-01-18T12:11:07.318Z,14.42
2023-01-18T12:14:40.127Z,14.21
2023-01-18T12:18:14.094Z,13.95
2023-01-18T12:21:32.347Z,13.74
2023-01-18T12:25:05.314Z,13.76
2023-01-18T12:28:23.607Z,13.66
2023-01-18T12:31:51.374Z,13.63
